Time;durP1;ratioP1;P1;durP2;ratioP2;P2;SDS_P1;SDS_P2;PMS_P1;PMS_P2;Temp;Humidity;BMP_temperature;BMP_pressure;BME280_temperature;BME280_humidity;BME280_pressure;Samples;Min_cycle;Max_cycle;Signal;HPM_P1;HPM_P2
2024/02/07 00:00:32;;;;;;;4.45;1.80;;;6.90;99.90;;;;;;5086264;28;20012;-72
2024/02/07 00:02:58;;;;;;;3.35;1.92;;;7.00;99.90;;;;;;5086247;28;20043;-72
2024/02/07 00:05:23;;;;;;;6.22;2.40;;;7.00;99.90;;;;;;5067736;28;20103;-72
2024/02/07 00:07:49;;;;;;;7.70;2.63;;;6.90;99.90;;;;;;5073227;28;20016;-72
2024/02/07 00:10:15;;;;;;;3.42;2.08;;;6.90;99.90;;;;;;5091801;28;21289;-73
2024/02/07 00:12:41;;;;;;;5.28;2.13;;;6.80;99.90;;;;;;5087543;28;20083;-72
2024/02/07 00:15:07;;;;;;;7.45;2.30;;;6.80;99.90;;;;;;5089558;28;20025;-72
2024/02/07 00:17:33;;;;;;;5.30;2.28;;;6.70;99.90;;;;;;5088701;28;20106;-72
2024/02/07 00:19:59;;;;;;;3.67;2.10;;;6.70;99.90;;;;;;5093361;27;20107;-72
2024/02/07 00:22:25;;;;;;;8.50;2.50;;;6.60;99.90;;;;;;5072124;28;20514;-72
2024/02/07 00:24:50;;;;;;;3.85;2.15;;;6.60;99.90;;;;;;5072517;28;20038;-72
2024/02/07 00:27:16;;;;;;;4.78;2.10;;;6.60;99.90;;;;;;5069711;28;20096;-72
2024/02/07 00:29:42;;;;;;;5.75;2.17;;;6.50;99.90;;;;;;5072887;28;20499;-73
2024/02/07 00:32:07;;;;;;;6.88;2.50;;;6.50;99.90;;;;;;5062564;28;20040;-72
2024/02/07 00:34:33;;;;;;;4.32;2.30;;;6.50;99.90;;;;;;5067627;28;20035;-72
2024/02/07 00:36:59;;;;;;;6.97;2.28;;;6.50;99.90;;;;;;5053588;28;20028;-72
2024/02/07 00:39:26;;;;;;;4.03;1.67;;;6.50;99.90;;;;;;5072050;28;20025;-72
2024/02/07 00:41:53;;;;;;;6.03;2.30;;;6.40;99.90;;;;;;5072905;28;20029;-72
2024/02/07 00:44:19;;;;;;;4.05;2.10;;;6.30;99.90;;;;;;5049771;28;20020;-72
2024/02/07 00:46:45;;;;;;;4.13;2.00;;;6.30;99.90;;;;;;5072721;28;20027;-72
2024/02/07 00:49:13;;;;;;;6.35;3.13;;;6.20;99.90;;;;;;5071772;28;20025;-72
2024/02/07 00:51:41;;;;;;;6.50;2.28;;;6.20;99.90;;;;;;5055004;28;20020;-72
2024/02/07 00:54:08;;;;;;;4.03;2.28;;;6.20;99.90;;;;;;5072751;28;20021;-72
2024/02/07 00:56:35;;;;;;;7.43;2.15;;;6.20;99.90;;;;;;5070213;28;20032;-72
2024/02/07 00:59:00;;;;;;;9.57;2.15;;;6.20;99.90;;;;;;5071935;28;20016;-71
2024/02/07 01:01:26;;;;;;;6.35;2.55;;;6.20;99.90;;;;;;5055637;28;20506;-72
2024/02/07 01:03:52;;;;;;;7.60;2.67;;;6.30;99.90;;;;;;5065184;28;20017;-72
2024/02/07 01:06:17;;;;;;;5.18;2.08;;;6.30;99.90;;;;;;5062797;28;20025;-71
2024/02/07 01:08:44;;;;;;;3.22;2.20;;;6.20;99.90;;;;;;5072366;28;20029;-71
2024/02/07 01:11:09;;;;;;;4.82;2.13;;;6.20;99.90;;;;;;5072118;28;20044;-72
2024/02/07 01:13:35;;;;;;;4.18;2.10;;;6.10;99.90;;;;;;5072163;28;20476;-71
2024/02/07 01:16:01;;;;;;;4.25;2.10;;;6.10;99.90;;;;;;5072020;28;20028;-72
2024/02/07 01:18:27;;;;;;;7.68;2.15;;;6.20;99.90;;;;;;5052756;28;20074;-72
2024/02/07 01:20:52;;;;;;;4.75;2.30;;;6.30;99.90;;;;;;5053504;28;20062;-72
2024/02/07 01:23:18;;;;;;;6.60;2.72;;;6.40;99.90;;;;;;5074962;28;20020;-72
2024/02/07 01:25:44;;;;;;;6.53;2.38;;;6.40;99.90;;;;;;5092437;28;20020;-72
2024/02/07 01:28:10;;;;;;;5.15;2.13;;;6.40;99.90;;;;;;5091855;28;20050;-72
2024/02/07 01:30:37;;;;;;;5.90;2.17;;;6.50;99.90;;;;;;5073264;28;20028;-72
2024/02/07 01:33:04;;;;;;;4.35;2.08;;;6.40;99.90;;;;;;5071925;28;20035;-72
2024/02/07 01:35:33;;;;;;;4.28;2.10;;;6.50;99.90;;;;;;5087432;28;20204;-72
2024/02/07 01:38:07;;;;;;;4.28;2.78;;;6.50;99.90;;;;;;5092803;28;20027;-72
2024/02/07 01:40:42;;;;;;;4.28;2.30;;;6.50;99.90;;;;;;5076443;28;20055;-72
2024/02/07 01:43:11;;;;;;;5.00;2.80;;;6.50;99.90;;;;;;5081630;28;20013;-72
2024/02/07 01:45:38;;;;;;;8.00;2.42;;;6.50;99.90;;;;;;5073379;28;20016;-72
2024/02/07 01:48:08;;;;;;;4.03;2.15;;;6.60;99.90;;;;;;5092189;28;20105;-72
2024/02/07 01:50:41;;;;;;;5.78;2.20;;;6.60;99.90;;;;;;5091289;28;20165;-72
2024/02/07 01:53:10;;;;;;;4.88;2.30;;;6.60;99.90;;;;;;5072387;28;20488;-72
2024/02/07 01:55:36;;;;;;;5.10;2.30;;;6.60;99.90;;;;;;5072698;28;20054;-72
2024/02/07 01:58:05;;;;;;;4.57;1.98;;;6.50;99.90;;;;;;5083224;28;20468;-72
2024/02/07 02:00:31;;;;;;;8.00;2.05;;;6.50;99.90;;;;;;5084546;28;20032;-72
2024/02/07 02:03:00;;;;;;;8.10;2.40;;;6.40;99.90;;;;;;5089902;28;20032;-72
2024/02/07 02:05:26;;;;;;;5.05;2.55;;;6.40;99.90;;;;;;5074081;28;20015;-72
2024/02/07 02:07:53;;;;;;;5.72;2.50;;;6.40;99.90;;;;;;5087785;28;20554;-72
2024/02/07 02:10:18;;;;;;;4.85;2.70;;;6.40;99.90;;;;;;5090183;28;20031;-72
2024/02/07 02:12:44;;;;;;;3.78;2.20;;;6.40;99.90;;;;;;5072908;28;20483;-72
2024/02/07 02:15:10;;;;;;;4.68;2.45;;;6.40;99.90;;;;;;5089774;28;20031;-72
2024/02/07 02:17:36;;;;;;;5.13;2.22;;;6.40;99.90;;;;;;5091542;28;20073;-72
2024/02/07 02:20:04;;;;;;;5.63;2.35;;;6.40;99.90;;;;;;5090205;28;20035;-72
2024/02/07 02:23:03;;;;;;;5.65;2.20;;;6.50;99.90;;;;;;5079200;28;20024;-72
2024/02/07 02:25:50;;;;;;;4.97;2.13;;;6.50;99.90;;;;;;5084619;28;20612;-72
2024/02/07 02:28:56;;;;;;;4.53;2.42;;;6.50;99.90;;;;;;5090043;28;20028;-72
2024/02/07 02:31:23;;;;;;;4.30;2.45;;;6.40;99.90;;;;;;5061756;28;20081;-72
2024/02/07 02:33:58;;;;;;;8.00;2.83;;;6.40;99.90;;;;;;5087257;28;20068;-72
2024/02/07 02:36:24;;;;;;;7.97;2.30;;;6.40;99.90;;;;;;5091000;28;20024;-72
2024/02/07 02:38:52;;;;;;;7.43;2.40;;;6.50;99.90;;;;;;5089400;28;20431;-71
2024/02/07 02:41:23;;;;;;;5.45;2.22;;;6.60;99.90;;;;;;5085545;28;20062;-71
2024/02/07 02:43:49;;;;;;;5.10;2.30;;;6.50;99.90;;;;;;5069994;28;20474;-71
2024/02/07 02:46:14;;;;;;;4.53;2.20;;;6.60;99.90;;;;;;5089533;28;20103;-72
2024/02/07 02:48:40;;;;;;;4.97;2.65;;;6.60;99.90;;;;;;5089602;28;20016;-72
2024/02/07 02:51:06;;;;;;;4.10;2.35;;;6.60;99.90;;;;;;5089933;28;20445;-71
2024/02/07 02:53:32;;;;;;;6.28;2.35;;;6.70;99.90;;;;;;5088559;28;20059;-72
2024/02/07 02:56:05;;;;;;;6.35;2.20;;;6.70;99.90;;;;;;5089322;28;20502;-72
2024/02/07 02:58:32;;;;;;;5.50;2.10;;;6.70;99.90;;;;;;5088314;28;20020;-71
2024/02/07 03:00:58;;;;;;;6.05;2.95;;;6.70;99.90;;;;;;5070879;28;20030;-71
2024/02/07 03:03:26;;;;;;;6.95;2.10;;;6.80;99.90;;;;;;5048096;28;20015;-72
2024/02/07 03:05:58;;;;;;;5.20;2.40;;;6.80;99.90;;;;;;5089997;28;20020;-71
2024/02/07 03:08:42;;;;;;;4.50;2.42;;;6.90;99.90;;;;;;5088543;28;20024;-71
2024/02/07 03:11:09;;;;;;;3.60;1.90;;;6.90;99.90;;;;;;5088415;28;20024;-71
2024/02/07 03:13:37;;;;;;;5.03;2.33;;;6.90;99.90;;;;;;5089581;28;20031;-72
2024/02/07 03:16:07;;;;;;;4.22;2.25;;;7.00;99.90;;;;;;5090284;28;20028;-72
2024/02/07 03:18:34;;;;;;;9.50;2.28;;;7.10;99.90;;;;;;5069713;28;20031;-72
2024/02/07 03:21:02;;;;;;;4.95;2.00;;;7.10;99.90;;;;;;5088599;28;20499;-72
2024/02/07 03:23:28;;;;;;;5.75;2.28;;;7.30;99.90;;;;;;5069331;28;20506;-72
2024/02/07 03:25:53;;;;;;;4.68;2.05;;;7.30;99.90;;;;;;5089950;28;20020;-72
2024/02/07 03:28:21;;;;;;;6.15;2.30;;;7.40;99.90;;;;;;5070341;28;20024;-72
2024/02/07 03:30:46;;;;;;;2.85;2.00;;;7.50;99.90;;;;;;5090040;28;20467;-72
2024/02/07 03:33:12;;;;;;;4.97;2.08;;;7.50;99.90;;;;;;5087879;28;20103;-72
2024/02/07 03:35:38;;;;;;;4.45;2.15;;;7.60;99.90;;;;;;5070234;28;20064;-72
2024/02/07 03:38:04;;;;;;;4.90;2.22;;;7.60;99.90;;;;;;5071532;28;20023;-71
2024/02/07 03:40:30;;;;;;;6.65;2.28;;;7.70;99.90;;;;;;5084214;28;20536;-71
2024/02/07 03:42:58;;;;;;;4.55;2.20;;;7.70;99.90;;;;;;5091044;28;20023;-71
2024/02/07 03:45:24;;;;;;;6.60;2.40;;;7.70;99.90;;;;;;5092594;28;20417;-72
2024/02/07 03:47:50;;;;;;;5.25;2.65;;;7.80;99.90;;;;;;5093001;28;20099;-72
2024/02/07 03:50:16;;;;;;;11.20;2.80;;;7.80;99.90;;;;;;5092707;28;20126;-71
2024/02/07 03:52:43;;;;;;;3.75;2.60;;;7.80;99.90;;;;;;5093750;28;20103;-71
2024/02/07 03:55:12;;;;;;;6.22;2.65;;;7.80;99.90;;;;;;5090006;28;20031;-73
2024/02/07 03:57:42;;;;;;;4.57;2.28;;;7.80;99.90;;;;;;5091555;28;20024;-71
2024/02/07 04:00:09;;;;;;;;;;;7.80;99.90;;;;;;5093714;28;20024;-71
2024/02/07 04:02:37;;;;;;;9.80;2.30;;;7.80;99.90;;;;;;5092533;28;19904;-71
2024/02/07 04:05:04;;;;;;;4.63;2.28;;;7.80;99.90;;;;;;5091197;28;20032;-71
2024/02/07 04:07:30;;;;;;;3.97;1.95;;;7.70;99.90;;;;;;5093543;28;20028;-71
2024/02/07 04:09:57;;;;;;;4.30;2.30;;;7.80;99.90;;;;;;5093930;28;20031;-71
2024/02/07 05:17:21;;;;;;;2.47;1.77;;;8.20;99.90;;;;;;5084904;28;20020;-72
2024/02/07 05:19:48;;;;;;;5.35;1.60;;;8.30;99.90;;;;;;5090608;28;20012;-71
2024/02/07 05:22:16;;;;;;;2.75;1.80;;;8.30;99.90;;;;;;5088722;28;20032;-71
2024/02/07 05:24:43;;;;;;;2.90;1.77;;;8.30;99.90;;;;;;5082708;28;20100;-71
2024/02/07 05:27:12;;;;;;;2.25;1.42;;;8.30;99.90;;;;;;5086489;28;20479;-71
2024/02/07 05:29:39;;;;;;;4.75;2.13;;;8.30;99.90;;;;;;5092291;28;20027;-70
2024/02/07 05:32:13;;;;;;;3.92;1.90;;;8.30;99.90;;;;;;5091685;28;20450;-72
2024/02/07 05:34:38;;;;;;;6.38;2.30;;;8.30;99.90;;;;;;5090795;28;20055;-71
2024/02/07 05:37:04;;;;;;;5.50;2.03;;;8.30;99.90;;;;;;5073426;28;20028;-72
2024/02/07 05:39:35;;;;;;;5.50;2.45;;;8.30;99.90;;;;;;5072771;28;20059;-72
2024/02/07 05:42:01;;;;;;;3.45;1.88;;;8.30;99.90;;;;;;5058128;28;20035;-70
2024/02/07 05:44:27;;;;;;;3.78;1.90;;;8.40;99.90;;;;;;5080924;28;20103;-72
2024/02/07 05:46:54;;;;;;;6.43;2.50;;;8.40;99.90;;;;;;5091274;28;20095;-72
2024/02/07 05:49:21;;;;;;;5.13;2.22;;;8.40;99.90;;;;;;5072467;28;20020;-72
2024/02/07 05:51:57;;;;;;;7.13;2.22;;;8.40;99.90;;;;;;5091655;28;20031;-71
2024/02/07 05:54:26;;;;;;;7.10;2.50;;;8.40;99.90;;;;;;5089781;28;20052;-73
2024/02/07 05:56:52;;;;;;;5.00;1.83;;;8.40;99.90;;;;;;5061617;28;20031;-74
2024/02/07 05:59:19;;;;;;;4.05;2.00;;;8.40;99.90;;;;;;5090090;28;20032;-73
2024/02/07 06:01:45;;;;;;;2.95;2.00;;;8.40;99.90;;;;;;5089071;28;20020;-73
2024/02/07 06:04:11;;;;;;;3.63;1.70;;;8.40;99.90;;;;;;5090305;28;20077;-73
2024/02/07 06:06:37;;;;;;;2.15;1.80;;;8.40;99.90;;;;;;5091135;28;20058;-70
2024/02/07 06:09:05;;;;;;;4.15;2.10;;;8.40;99.90;;;;;;5090778;28;20024;-73
2024/02/07 06:11:41;;;;;;;4.72;2.20;;;8.40;99.90;;;;;;5039885;28;20115;-73
2024/02/07 06:14:17;;;;;;;6.57;2.22;;;8.40;99.90;;;;;;5072948;28;20031;-74
2024/02/07 06:16:43;;;;;;;3.72;2.10;;;8.40;99.90;;;;;;5072736;28;20032;-73
2024/02/07 06:19:09;;;;;;;3.05;2.13;;;8.40;99.90;;;;;;5071883;28;20021;-72
2024/02/07 06:21:37;;;;;;;5.05;2.20;;;8.40;99.90;;;;;;5061163;28;20041;-74
2024/02/07 06:24:02;;;;;;;4.82;2.38;;;8.50;99.90;;;;;;5064671;28;20102;-73
2024/02/07 06:26:28;;;;;;;4.30;2.20;;;8.50;99.90;;;;;;5058411;28;20480;-73
2024/02/07 06:28:53;;;;;;;6.60;2.08;;;8.50;99.90;;;;;;5070791;28;20492;-73
2024/02/07 06:31:19;;;;;;;7.57;2.47;;;8.50;99.90;;;;;;5049283;28;20021;-73
2024/02/07 06:33:45;;;;;;;8.30;2.50;;;8.50;99.90;;;;;;5054802;28;20035;-73
2024/02/07 06:36:11;;;;;;;3.78;1.80;;;8.50;99.90;;;;;;5063231;28;20376;-74
2024/02/07 06:38:37;;;;;;;7.13;2.65;;;8.50;99.90;;;;;;5059599;28;20461;-73
2024/02/07 06:41:03;;;;;;;4.05;2.45;;;8.50;99.90;;;;;;5059150;28;20499;-73
2024/02/07 06:43:29;;;;;;;10.32;2.80;;;8.60;99.90;;;;;;5070268;28;20208;-73
2024/02/07 06:45:57;;;;;;;8.52;2.50;;;8.60;99.90;;;;;;5062612;28;20390;-71
2024/02/07 06:48:22;;;;;;;5.50;2.78;;;8.60;99.90;;;;;;5041596;28;20053;-73
2024/02/07 06:50:50;;;;;;;5.32;2.30;;;8.60;99.90;;;;;;5068250;28;20110;-73
2024/02/07 06:53:16;;;;;;;4.85;2.55;;;8.70;99.90;;;;;;5063194;28;20049;-73
2024/02/07 06:55:42;;;;;;;4.88;2.60;;;8.60;99.90;;;;;;5063882;28;20033;-74
2024/02/07 06:58:07;;;;;;;5.05;2.58;;;8.70;99.90;;;;;;5068749;28;20039;-74
2024/02/07 07:00:33;;;;;;;10.63;2.70;;;8.70;99.90;;;;;;5074918;28;20108;-77
2024/02/07 07:02:58;;;;;;;9.70;3.20;;;8.70;99.90;;;;;;5061949;28;20028;-74
2024/02/07 07:05:25;;;;;;;7.07;2.70;;;8.80;99.90;;;;;;5082508;28;20024;-75
2024/02/07 07:07:52;;;;;;;4.45;2.53;;;8.80;99.90;;;;;;5062975;28;20040;-73
2024/02/07 07:10:18;;;;;;;6.45;2.55;;;8.80;99.90;;;;;;5069451;28;20078;-73
2024/02/07 07:12:43;;;;;;;7.28;2.33;;;8.90;99.90;;;;;;5072890;28;20494;-73
2024/02/07 07:15:12;;;;;;;7.95;3.08;;;8.90;99.90;;;;;;5076697;28;20027;-73
2024/02/07 07:17:38;;;;;;;9.32;2.97;;;8.90;99.90;;;;;;5044085;28;20108;-73
2024/02/07 07:20:04;;;;;;;8.68;2.88;;;8.90;99.90;;;;;;5063307;28;20116;-73
2024/02/07 07:22:30;;;;;;;10.00;2.50;;;8.90;99.90;;;;;;5083978;28;20057;-72
2024/02/07 07:24:56;;;;;;;4.53;2.35;;;9.00;99.90;;;;;;5073223;28;20471;-74
2024/02/07 07:27:21;;;;;;;5.03;2.38;;;9.00;99.90;;;;;;5062166;28;20020;-76
2024/02/07 07:29:47;;;;;;;6.53;2.45;;;9.00;99.90;;;;;;5084417;28;20379;-75
2024/02/07 07:32:14;;;;;;;4.32;2.47;;;9.00;99.90;;;;;;5074516;28;20100;-75
2024/02/07 07:34:40;;;;;;;8.52;2.80;;;9.00;99.90;;;;;;5084593;28;20049;-75
2024/02/07 07:37:06;;;;;;;9.38;2.50;;;9.00;99.90;;;;;;5076279;28;20054;-73
2024/02/07 07:39:31;;;;;;;7.38;2.38;;;9.00;99.90;;;;;;5085188;28;20020;-73
2024/02/07 07:41:57;;;;;;;8.30;2.80;;;9.10;99.90;;;;;;5064508;28;20036;-73
2024/02/07 07:44:22;;;;;;;4.88;2.67;;;9.10;99.90;;;;;;5055584;28;20373;-73
2024/02/07 07:46:48;;;;;;;6.80;2.72;;;9.10;99.90;;;;;;5064028;28;20037;-73
2024/02/07 07:49:14;;;;;;;6.50;2.75;;;9.20;99.90;;;;;;5065421;28;20017;-73
2024/02/07 07:51:40;;;;;;;5.35;2.63;;;9.10;99.90;;;;;;5083066;28;20134;-73
2024/02/07 07:54:06;;;;;;;8.27;2.33;;;9.20;99.90;;;;;;5083643;28;20115;-73
2024/02/07 07:56:32;;;;;;;6.22;2.83;;;9.20;99.90;;;;;;5064287;28;20044;-73
2024/02/07 07:59:00;;;;;;;7.35;3.00;;;9.20;99.90;;;;;;5068809;28;20034;-73
2024/02/07 08:01:27;;;;;;;2.95;2.03;;;9.30;99.90;;;;;;5060926;28;20403;-73
2024/02/07 08:03:53;;;;;;;7.90;2.40;;;9.30;99.90;;;;;;5065809;28;20013;-73
2024/02/07 08:06:19;;;;;;;10.55;2.97;;;9.40;99.90;;;;;;5068918;28;20495;-74
2024/02/07 08:08:45;;;;;;;7.95;2.60;;;9.40;99.90;;;;;;5076410;28;20488;-74
2024/02/07 08:11:11;;;;;;;6.25;2.67;;;9.50;99.90;;;;;;5071081;28;20099;-71
2024/02/07 08:13:36;;;;;;;5.43;2.70;;;9.50;99.90;;;;;;5082659;28;20072;-75
2024/02/07 08:16:02;;;;;;;5.35;2.58;;;9.50;99.90;;;;;;5070891;28;20082;-74
2024/02/07 08:18:30;;;;;;;9.13;2.70;;;9.50;99.90;;;;;;5074397;28;20108;-73
2024/02/07 08:20:55;;;;;;;10.18;2.72;;;9.50;99.90;;;;;;5082995;28;20040;-73
2024/02/07 08:23:22;;;;;;;13.38;3.38;;;9.50;99.90;;;;;;5044372;28;20392;-73
2024/02/07 08:25:47;;;;;;;7.32;2.38;;;9.50;99.90;;;;;;5076835;28;20031;-75
2024/02/07 08:28:13;;;;;;;11.15;3.08;;;9.50;99.90;;;;;;5076258;28;20033;-75
2024/02/07 08:30:40;;;;;;;7.55;2.60;;;9.50;99.90;;;;;;5069025;28;20059;-75
2024/02/07 08:33:06;;;;;;;6.50;3.15;;;9.60;99.90;;;;;;5088694;28;20059;-75
2024/02/07 08:35:31;;;;;;;6.60;2.17;;;9.60;99.90;;;;;;5072450;28;20074;-76
2024/02/07 08:37:58;;;;;;;6.22;2.22;;;9.60;99.90;;;;;;5091129;28;20096;-76
2024/02/07 08:40:28;;;;;;;7.65;2.47;;;9.70;99.90;;;;;;5078640;28;20025;-76
2024/02/07 08:42:54;;;;;;;6.82;2.33;;;9.70;99.90;;;;;;5086501;28;20024;-75
2024/02/07 08:45:23;;;;;;;4.93;2.35;;;9.80;99.90;;;;;;5054755;28;20582;-74
2024/02/07 08:47:50;;;;;;;5.68;2.63;;;9.80;99.90;;;;;;5082451;28;20028;-75
2024/02/07 08:50:16;;;;;;;3.97;2.20;;;9.80;99.90;;;;;;5068386;28;20017;-75
2024/02/07 08:52:42;;;;;;;8.00;3.50;;;9.80;99.90;;;;;;5077334;28;20016;-76
2024/02/07 08:55:09;;;;;;;4.65;2.50;;;9.80;99.90;;;;;;5072472;28;20029;-75
2024/02/07 08:57:41;;;;;;;4.85;2.30;;;9.80;99.90;;;;;;5080801;28;20016;-72
2024/02/07 09:00:09;;;;;;;4.90;2.50;;;9.80;99.90;;;;;;5056665;28;20072;-72
2024/02/07 09:02:34;;;;;;;4.05;2.15;;;9.80;99.90;;;;;;5089572;28;20024;-72
2024/02/07 09:05:04;;;;;;;8.30;2.35;;;9.70;99.90;;;;;;5082000;28;20028;-72
2024/02/07 09:07:34;;;;;;;7.10;3.05;;;9.80;99.90;;;;;;5064003;28;20028;-72
2024/02/07 09:10:01;;;;;;;4.53;2.50;;;9.80;99.90;;;;;;5087478;28;20024;-72
2024/02/07 09:12:29;;;;;;;6.07;2.63;;;9.80;99.90;;;;;;5091478;28;20032;-72
2024/02/07 09:14:59;;;;;;;12.55;3.53;;;9.80;99.90;;;;;;5072249;28;20514;-73
2024/02/07 09:17:25;;;;;;;12.07;2.70;;;9.80;99.90;;;;;;5081017;28;20051;-73
2024/02/07 09:19:52;;;;;;;6.38;2.40;;;9.80;99.90;;;;;;5091378;28;20031;-72
2024/02/07 09:22:17;;;;;;;4.57;2.90;;;9.90;99.90;;;;;;5044077;28;20037;-73
2024/02/07 09:24:43;;;;;;;13.25;2.97;;;9.90;99.90;;;;;;5071449;28;20066;-72
2024/02/07 09:27:09;;;;;;;7.13;2.85;;;9.90;99.90;;;;;;5063460;28;20028;-73
2024/02/07 09:29:38;;;;;;;5.95;2.50;;;9.90;99.90;;;;;;5051713;28;20021;-73
2024/02/07 09:32:04;;;;;;;9.75;2.85;;;10.00;99.90;;;;;;5063138;28;20071;-74
2024/02/07 09:34:30;;;;;;;4.85;2.47;;;10.00;99.90;;;;;;5070263;28;20502;-72
2024/02/07 09:36:55;;;;;;;11.25;2.70;;;10.00;99.90;;;;;;5068098;28;20043;-73
2024/02/07 09:39:22;;;;;;;10.75;2.75;;;10.10;99.90;;;;;;5065977;28;20480;-72
2024/02/07 09:41:49;;;;;;;8.18;2.72;;;10.20;99.90;;;;;;5068422;28;20467;-72
2024/02/07 09:44:20;;;;;;;8.68;3.10;;;10.20;99.90;;;;;;5049443;28;20082;-72
2024/02/07 09:46:46;;;;;;;7.60;2.90;;;10.20;99.90;;;;;;5071630;28;20029;-73
2024/02/07 09:49:15;;;;;;;5.60;2.88;;;10.20;99.90;;;;;;5066300;28;20093;-73
2024/02/07 09:51:42;;;;;;;5.68;2.60;;;10.20;99.90;;;;;;5059050;28;21564;-73
2024/02/07 09:54:12;;;;;;;5.50;2.58;;;10.20;99.90;;;;;;5045529;28;20040;-73
2024/02/07 09:56:38;;;;;;;8.57;3.03;;;10.30;99.90;;;;;;5070695;28;20017;-74
2024/02/07 09:59:09;;;;;;;8.27;2.83;;;10.30;99.90;;;;;;5067591;28;20037;-73
2024/02/07 10:01:35;;;;;;;10.00;3.45;;;10.30;99.90;;;;;;5024424;28;20021;-73
2024/02/07 10:04:02;;;;;;;7.90;2.72;;;10.30;99.90;;;;;;5067719;28;20025;-73
2024/02/07 10:06:28;;;;;;;8.20;3.28;;;10.40;99.90;;;;;;5048511;28;20048;-73
2024/02/07 10:08:56;;;;;;;6.57;2.60;;;10.50;99.90;;;;;;5070496;28;20052;-73
2024/02/07 10:11:22;;;;;;;5.72;2.65;;;10.50;99.90;;;;;;5064174;28;20488;-74
2024/02/07 10:13:49;;;;;;;8.13;2.80;;;10.60;99.90;;;;;;5049990;28;20032;-74
2024/02/07 10:16:15;;;;;;;4.45;2.20;;;10.70;99.90;;;;;;5069888;28;20024;-74
2024/02/07 10:18:44;;;;;;;8.15;2.47;;;10.80;99.90;;;;;;5070732;28;20102;-74
2024/02/07 10:21:10;;;;;;;6.30;2.35;;;10.80;99.90;;;;;;5062367;28;20044;-74
2024/02/07 10:23:38;;;;;;;5.40;2.33;;;10.90;99.90;;;;;;5069601;28;20024;-75
2024/02/07 10:26:04;;;;;;;5.68;2.28;;;10.90;99.90;;;;;;5053019;28;20024;-74
2024/02/07 10:28:30;;;;;;;7.38;2.25;;;10.90;99.90;;;;;;5059732;28;20759;-75
2024/02/07 10:31:00;;;;;;;8.32;2.30;;;10.90;99.90;;;;;;5068706;28;20029;-72
2024/02/07 10:33:46;;;;;;;4.32;2.33;;;10.90;99.90;;;;;;5065993;28;20029;-72
2024/02/07 10:36:12;;;;;;;4.80;1.60;;;11.00;99.90;;;;;;5050842;28;20445;-74
2024/02/07 10:38:37;;;;;;;5.63;2.00;;;11.10;99.90;;;;;;5065855;28;20131;-73
2024/02/07 10:41:03;;;;;;;3.00;1.80;;;11.10;99.90;;;;;;5067023;28;20040;-73
2024/02/07 10:43:41;;;;;;;6.18;1.90;;;11.10;99.90;;;;;;5062413;28;20286;-73
2024/02/07 10:46:17;;;;;;;10.95;2.45;;;11.20;99.90;;;;;;5070420;28;20199;-73
2024/02/07 10:48:43;;;;;;;8.77;2.65;;;11.10;99.90;;;;;;5055478;28;20021;-73
2024/02/07 10:51:10;;;;;;;5.70;1.80;;;11.20;99.90;;;;;;5061705;28;20031;-73
2024/02/07 10:53:37;;;;;;;5.70;2.63;;;11.10;99.90;;;;;;5069244;28;20479;-73
2024/02/07 10:56:06;;;;;;;6.47;2.00;;;11.10;99.90;;;;;;5064513;28;20461;-72
2024/02/07 10:58:33;;;;;;;5.85;2.00;;;11.00;99.90;;;;;;5048125;28;20041;-73
2024/02/07 11:00:59;;;;;;;6.43;1.60;;;11.00;99.90;;;;;;5045295;28;20064;-72
2024/02/07 11:03:29;;;;;;;5.88;2.08;;;11.00;99.90;;;;;;5041604;28;20487;-74
2024/02/07 11:05:55;;;;;;;;;;;11.00;99.90;;;;;;5057262;28;20477;-73
2024/02/07 11:08:22;;;;;;;4.35;1.90;;;10.90;99.90;;;;;;5045112;28;19950;-74
2024/02/07 11:10:48;;;;;;;5.45;1.98;;;10.90;99.90;;;;;;5047041;28;20056;-73
2024/02/07 11:13:14;;;;;;;4.22;1.80;;;10.90;99.90;;;;;;5064747;28;20028;-74
2024/02/07 11:15:40;;;;;;;4.78;1.80;;;10.90;99.90;;;;;;5062517;28;20059;-73
2024/02/07 11:18:10;;;;;;;6.68;2.00;;;11.00;99.90;;;;;;5069069;28;20146;-74
2024/02/07 11:20:37;;;;;;;4.15;1.90;;;11.00;99.90;;;;;;5070866;28;20024;-74
2024/02/07 11:23:11;;;;;;;8.60;2.08;;;11.00;99.90;;;;;;5087840;28;20020;-74
2024/02/07 11:25:39;;;;;;;3.08;1.70;;;11.10;99.90;;;;;;5083870;28;20027;-74
2024/02/07 11:28:05;;;;;;;6.25;2.00;;;11.20;99.90;;;;;;5054873;28;20032;-74
2024/02/07 11:30:31;;;;;;;4.20;1.73;;;11.20;99.90;;;;;;5088859;28;20491;-74
2024/02/07 11:32:58;;;;;;;4.47;2.38;;;11.20;99.90;;;;;;5088314;28;20024;-75
2024/02/07 11:35:24;;;;;;;3.28;1.92;;;11.20;99.90;;;;;;5085249;28;20098;-74
2024/02/07 11:37:50;;;;;;;5.43;1.88;;;11.30;99.90;;;;;;5061326;28;20027;-77
2024/02/07 11:40:18;;;;;;;5.38;1.88;;;11.40;99.90;;;;;;5086510;28;20050;-75
2024/02/07 11:42:44;;;;;;;5.30;1.95;;;11.50;99.90;;;;;;5082303;28;20024;-76
2024/02/07 11:45:15;;;;;;;6.35;2.28;;;11.50;99.90;;;;;;5070438;28;20021;-75
2024/02/07 11:47:44;;;;;;;4.53;1.77;;;11.60;99.90;;;;;;5068921;28;20048;-75
2024/02/07 11:50:14;;;;;;;6.65;1.80;;;11.70;99.90;;;;;;5084586;28;20457;-75
2024/02/07 11:52:42;;;;;;;;;;;11.80;99.90;;;;;;5067812;28;20079;-76
2024/02/07 11:55:15;;;;;;;3.05;1.88;;;11.90;99.90;;;;;;5087246;28;19944;-76
2024/02/07 11:57:51;;;;;;;3.13;1.40;;;12.00;99.90;;;;;;5079459;28;20049;-76
2024/02/07 12:00:18;;;;;;;2.92;1.38;;;12.20;99.90;;;;;;5057625;28;20024;-76
2024/02/07 12:02:52;;;;;;;4.18;1.63;;;12.30;99.90;;;;;;5090221;28;20028;-76
2024/02/07 12:05:19;;;;;;;1.75;1.40;;;12.40;99.90;;;;;;5065772;28;20395;-78
2024/02/07 12:07:49;;;;;;;4.20;1.27;;;12.40;99.90;;;;;;5090370;28;20025;-75
2024/02/07 12:10:15;;;;;;;2.80;1.25;;;12.50;99.90;;;;;;5074640;28;20027;-75
2024/02/07 12:12:42;;;;;;;4.25;1.50;;;12.60;99.90;;;;;;5083088;28;20032;-76
2024/02/07 12:15:09;;;;;;;5.82;1.63;;;12.70;99.90;;;;;;5067236;28;20020;-77
2024/02/07 12:17:35;;;;;;;2.95;1.30;;;12.60;99.90;;;;;;5070785;28;20510;-77
2024/02/07 12:20:02;;;;;;;3.58;1.33;;;12.60;99.90;;;;;;5076999;28;20070;-76
2024/02/07 12:22:30;;;;;;;1.60;1.40;;;12.70;99.90;;;;;;5061470;28;20458;-73
2024/02/07 12:25:00;;;;;;;1.35;1.10;;;12.80;99.90;;;;;;5072758;28;20029;-73
2024/02/07 12:27:26;;;;;;;3.63;1.15;;;13.00;99.90;;;;;;5072667;28;20430;-72
2024/02/07 12:29:54;;;;;;;1.88;1.10;;;13.10;99.90;;;;;;5061335;28;20041;-72
2024/02/07 12:32:20;;;;;;;2.92;1.10;;;13.10;99.90;;;;;;5061499;28;20029;-73
2024/02/07 12:34:46;;;;;;;2.38;1.33;;;13.00;99.90;;;;;;5068454;28;20035;-72
2024/02/07 12:37:19;;;;;;;5.45;1.20;;;12.90;99.90;;;;;;5071720;28;20020;-73
2024/02/07 12:39:49;;;;;;;3.70;1.40;;;12.80;99.90;;;;;;5063498;28;20032;-73
2024/02/07 12:42:19;;;;;;;1.83;1.00;;;12.80;99.90;;;;;;5039748;28;20115;-73
2024/02/07 12:44:49;;;;;;;1.83;1.00;;;12.80;99.90;;;;;;5051697;28;20027;-73
2024/02/07 12:47:15;;;;;;;1.55;0.80;;;12.70;99.90;;;;;;5060634;28;20056;-73
2024/02/07 12:49:41;;;;;;;2.10;0.90;;;12.60;99.90;;;;;;5072066;28;20048;-73
2024/02/07 12:52:09;;;;;;;3.50;1.10;;;12.50;99.90;;;;;;5053287;28;20029;-73
2024/02/07 12:54:36;;;;;;;2.15;0.90;;;12.50;99.90;;;;;;5047252;28;20021;-73
2024/02/07 12:57:02;;;;;;;1.33;1.00;;;12.40;99.90;;;;;;5079557;28;20089;-73
2024/02/07 12:59:35;;;;;;;3.92;1.00;;;12.40;99.90;;;;;;5069222;28;20036;-74
2024/02/07 13:02:03;;;;;;;3.03;1.40;;;12.40;99.90;;;;;;5059892;28;20077;-73
2024/02/07 13:04:32;;;;;;;2.30;1.02;;;12.50;99.90;;;;;;5071320;28;20075;-73
2024/02/07 13:07:05;;;;;;;2.53;1.10;;;12.40;99.90;;;;;;5053297;28;20032;-76
2024/02/07 13:09:31;;;;;;;4.15;1.30;;;12.30;99.90;;;;;;5067436;28;20032;-76
2024/02/07 13:11:57;;;;;;;3.40;1.20;;;12.10;99.90;;;;;;5070257;28;20032;-76
2024/02/07 13:14:23;;;;;;;2.70;1.83;;;12.10;99.90;;;;;;5071230;28;20021;-76
2024/02/07 13:16:51;;;;;;;2.80;1.00;;;12.10;99.90;;;;;;5072080;28;20153;-76
2024/02/07 13:19:18;;;;;;;2.88;1.20;;;12.10;99.90;;;;;;5070378;28;20388;-75
2024/02/07 13:21:45;;;;;;;5.68;1.40;;;12.30;99.90;;;;;;5068527;28;20174;-75
2024/02/07 13:24:18;;;;;;;2.47;1.20;;;12.30;99.90;;;;;;5079733;28;20021;-75
2024/02/07 13:26:45;;;;;;;3.88;1.58;;;12.40;99.90;;;;;;5085462;28;20032;-76
2024/02/07 13:29:11;;;;;;;4.18;1.40;;;12.50;99.90;;;;;;5076240;28;20392;-74
2024/02/07 13:31:41;;;;;;;2.45;1.00;;;12.50;99.90;;;;;;5078406;28;20147;-74
2024/02/07 13:34:11;;;;;;;2.67;1.25;;;12.50;99.90;;;;;;5081427;28;20033;-74
2024/02/07 13:36:38;;;;;;;3.15;1.10;;;12.40;99.90;;;;;;5082500;28;20115;-75
2024/02/07 13:39:04;;;;;;;2.92;1.10;;;12.30;99.90;;;;;;5054423;28;20499;-75
2024/02/07 13:41:31;;;;;;;2.88;1.02;;;12.20;99.90;;;;;;5075372;28;20074;-75
2024/02/07 13:43:58;;;;;;;5.60;1.40;;;12.10;99.90;;;;;;5075685;28;20023;-77
2024/02/07 13:46:25;;;;;;;5.97;1.50;;;12.00;99.90;;;;;;5077383;28;20033;-73
2024/02/07 13:48:56;;;;;;;1.40;0.90;;;11.90;99.90;;;;;;5079200;28;20044;-75
2024/02/07 13:51:22;;;;;;;1.90;1.38;;;11.80;99.90;;;;;;5050197;28;20490;-76
2024/02/07 13:53:47;;;;;;;8.15;1.45;;;11.70;99.90;;;;;;5061607;28;20020;-75
2024/02/07 13:56:13;;;;;;;3.42;1.38;;;11.70;99.90;;;;;;5080772;28;20025;-75
2024/02/07 13:58:38;;;;;;;2.92;1.20;;;11.70;99.90;;;;;;5076339;28;20500;-72